sensor_id;sensor_type;location;lat;lon;timestamp;pressure;altitude;pressure_sealevel;temperature;humidity
60015;BME280;45867;52.480;6.056;2023-07-30T00:02:25;99574.81;;;14.03;100.00
60015;BME280;45867;52.480;6.056;2023-07-30T00:04:51;99571.03;;;14.04;100.00
60015;BME280;45867;52.480;6.056;2023-07-30T00:07:19;99553.94;;;14.05;100.00
60015;BME280;45867;52.480;6.056;2023-07-30T00:09:46;99576.66;;;14.11;100.00
60015;BME280;45867;52.480;6.056;2023-07-30T00:12:13;99531.59;;;13.88;100.00
60015;BME280;45867;52.480;6.056;2023-07-30T00:14:39;99580.88;;;14.12;100.00
60015;BME280;45867;52.480;6.056;2023-07-30T00:17:07;99553.50;;;13.94;100.00
60015;BME280;45867;52.480;6.056;2023-07-30T00:19:34;99570.56;;;14.02;100.00
60015;BME280;45867;52.480;6.056;2023-07-30T00:22:00;99561.63;;;14.06;100.00
60015;BME280;45867;52.480;6.056;2023-07-30T00:24:27;99564.59;;;14.05;100.00
60015;BME280;45867;52.480;6.056;2023-07-30T00:26:56;99553.34;;;13.99;100.00
60015;BME280;45867;52.480;6.056;2023-07-30T00:29:26;99558.50;;;14.04;100.00
60015;BME280;45867;52.480;6.056;2023-07-30T00:31:52;99554.31;;;13.94;100.00
60015;BME280;45867;52.480;6.056;2023-07-30T00:34:21;99539.59;;;13.97;100.00
60015;BME280;45867;52.480;6.056;2023-07-30T00:36:48;99546.75;;;14.05;100.00
60015;BME280;45867;52.480;6.056;2023-07-30T00:39:14;99527.22;;;13.92;100.00
60015;BME280;45867;52.480;6.056;2023-07-30T00:41:41;99528.00;;;13.93;100.00
60015;BME280;45867;52.480;6.056;2023-07-30T00:44:10;99534.38;;;14.01;100.00
60015;BME280;45867;52.480;6.056;2023-07-30T00:46:36;99521.56;;;13.94;100.00
60015;BME280;45867;52.480;6.056;2023-07-30T00:49:03;99540.97;;;14.03;100.00
60015;BME280;45867;52.480;6.056;2023-07-30T00:51:33;99545.34;;;14.08;100.00
60015;BME280;45867;52.480;6.056;2023-07-30T00:54:01;99522.03;;;13.96;100.00
60015;BME280;45867;52.480;6.056;2023-07-30T00:56:28;99543.50;;;13.99;100.00
60015;BME280;45867;52.480;6.056;2023-07-30T00:58:55;99538.00;;;13.96;100.00
60015;BME280;45867;52.480;6.056;2023-07-30T01:01:28;99536.59;;;13.98;100.00
60015;BME280;45867;52.480;6.056;2023-07-30T01:03:59;99518.03;;;13.81;100.00
60015;BME280;45867;52.480;6.056;2023-07-30T01:06:29;99550.69;;;13.99;100.00
60015;BME280;45867;52.480;6.056;2023-07-30T01:08:56;99556.94;;;14.03;100.00
60015;BME280;45867;52.480;6.056;2023-07-30T01:11:22;99545.09;;;13.92;100.00
60015;BME280;45867;52.480;6.056;2023-07-30T01:13:56;99532.41;;;13.80;100.00
60015;BME280;45867;52.480;6.056;2023-07-30T01:16:25;99579.03;;;14.04;100.00
60015;BME280;45867;52.480;6.056;2023-07-30T01:18:59;99558.09;;;13.85;100.00
60015;BME280;45867;52.480;6.056;2023-07-30T01:21:25;99572.84;;;13.82;100.00
60015;BME280;45867;52.480;6.056;2023-07-30T01:23:52;99595.69;;;13.92;100.00
60015;BME280;45867;52.480;6.056;2023-07-30T01:26:27;99586.44;;;13.89;100.00
60015;BME280;45867;52.480;6.056;2023-07-30T01:28:58;99599.75;;;13.89;100.00
60015;BME280;45867;52.480;6.056;2023-07-30T01:31:34;99596.63;;;13.87;100.00
60015;BME280;45867;52.480;6.056;2023-07-30T01:34:03;99618.25;;;13.94;100.00
60015;BME280;45867;52.480;6.056;2023-07-30T01:36:31;99617.75;;;13.92;100.00
60015;BME280;45867;52.480;6.056;2023-07-30T01:38:59;99610.72;;;13.88;100.00
60015;BME280;45867;52.480;6.056;2023-07-30T01:41:25;99617.13;;;13.95;100.00
60015;BME280;45867;52.480;6.056;2023-07-30T01:43:55;99619.19;;;13.90;100.00
60015;BME280;45867;52.480;6.056;2023-07-30T01:46:22;99601.03;;;13.83;100.00
60015;BME280;45867;52.480;6.056;2023-07-30T01:49:02;99603.72;;;13.83;100.00
60015;BME280;45867;52.480;6.056;2023-07-30T01:51:29;99602.91;;;13.83;100.00
60015;BME280;45867;52.480;6.056;2023-07-30T01:53:55;99617.25;;;13.99;100.00
60015;BME280;45867;52.480;6.056;2023-07-30T01:56:22;99610.41;;;13.89;100.00
60015;BME280;45867;52.480;6.056;2023-07-30T01:58:57;99623.22;;;13.96;100.00
60015;BME280;45867;52.480;6.056;2023-07-30T02:01:27;99597.75;;;13.86;100.00
60015;BME280;45867;52.480;6.056;2023-07-30T02:03:57;99619.00;;;13.95;100.00
60015;BME280;45867;52.480;6.056;2023-07-30T02:06:28;99593.66;;;13.89;100.00
60015;BME280;45867;52.480;6.056;2023-07-30T02:08:54;99601.97;;;13.87;100.00
60015;BME280;45867;52.480;6.056;2023-07-30T02:11:26;99580.69;;;13.79;100.00
60015;BME280;45867;52.480;6.056;2023-07-30T02:13:56;99598.84;;;13.76;100.00
60015;BME280;45867;52.480;6.056;2023-07-30T02:16:26;99592.59;;;13.72;100.00
60015;BME280;45867;52.480;6.056;2023-07-30T02:18:55;99581.94;;;13.64;100.00
60015;BME280;45867;52.480;6.056;2023-07-30T02:21:25;99582.56;;;13.69;100.00
60015;BME280;45867;52.480;6.056;2023-07-30T02:23:52;99584.88;;;13.88;100.00
60015;BME280;45867;52.480;6.056;2023-07-30T02:26:21;99578.31;;;13.77;100.00
60015;BME280;45867;52.480;6.056;2023-07-30T02:28:47;99570.03;;;13.79;100.00
60015;BME280;45867;52.480;6.056;2023-07-30T02:31:14;99556.94;;;13.56;100.00
60015;BME280;45867;52.480;6.056;2023-07-30T02:33:40;99548.59;;;13.66;100.00
60015;BME280;45867;52.480;6.056;2023-07-30T02:36:13;99511.97;;;13.63;100.00
60015;BME280;45867;52.480;6.056;2023-07-30T02:38:39;99505.88;;;13.63;100.00
60015;BME280;45867;52.480;6.056;2023-07-30T02:41:11;99504.28;;;13.70;100.00
60015;BME280;45867;52.480;6.056;2023-07-30T02:43:37;99468.50;;;13.50;100.00
60015;BME280;45867;52.480;6.056;2023-07-30T02:46:13;99453.09;;;13.65;100.00
60015;BME280;45867;52.480;6.056;2023-07-30T02:48:45;99445.25;;;13.68;100.00
60015;BME280;45867;52.480;6.056;2023-07-30T02:51:21;99416.91;;;13.72;100.00
60015;BME280;45867;52.480;6.056;2023-07-30T02:53:52;99384.66;;;13.65;100.00
60015;BME280;45867;52.480;6.056;2023-07-30T02:56:21;99357.34;;;13.77;100.00
60015;BME280;45867;52.480;6.056;2023-07-30T02:58:52;99312.78;;;13.65;100.00
60015;BME280;45867;52.480;6.056;2023-07-30T03:01:22;99307.94;;;13.67;100.00
60015;BME280;45867;52.480;6.056;2023-07-30T03:03:57;99309.75;;;13.75;100.00
60015;BME280;45867;52.480;6.056;2023-07-30T03:06:27;99275.38;;;13.83;100.00
60015;BME280;45867;52.480;6.056;2023-07-30T03:08:56;99252.22;;;13.83;100.00
60015;BME280;45867;52.480;6.056;2023-07-30T03:11:26;99245.44;;;13.86;100.00
60015;BME280;45867;52.480;6.056;2023-07-30T03:13:52;99245.91;;;13.88;100.00
60015;BME280;45867;52.480;6.056;2023-07-30T03:16:29;99232.75;;;13.91;100.00
60015;BME280;45867;52.480;6.056;2023-07-30T03:18:55;99214.72;;;13.88;100.00
60015;BME280;45867;52.480;6.056;2023-07-30T03:21:25;99193.19;;;13.81;100.00
60015;BME280;45867;52.480;6.056;2023-07-30T03:24:01;99203.84;;;13.81;100.00
60015;BME280;45867;52.480;6.056;2023-07-30T03:26:30;99189.41;;;13.82;100.00
60015;BME280;45867;52.480;6.056;2023-07-30T03:28:59;99152.84;;;13.58;100.00
60015;BME280;45867;52.480;6.056;2023-07-30T03:31:27;99152.34;;;13.77;100.00
60015;BME280;45867;52.480;6.056;2023-07-30T03:33:57;99135.59;;;13.76;100.00
60015;BME280;45867;52.480;6.056;2023-07-30T03:36:26;99127.03;;;13.71;100.00
60015;BME280;45867;52.480;6.056;2023-07-30T03:39:02;99111.72;;;13.68;100.00
60015;BME280;45867;52.480;6.056;2023-07-30T03:41:31;99110.22;;;13.79;100.00
60015;BME280;45867;52.480;6.056;2023-07-30T03:44:01;99087.13;;;13.71;100.00
60015;BME280;45867;52.480;6.056;2023-07-30T03:46:30;99063.16;;;13.59;100.00
60015;BME280;45867;52.480;6.056;2023-07-30T03:49:01;99055.28;;;13.74;100.00
60015;BME280;45867;52.480;6.056;2023-07-30T03:51:31;99033.22;;;13.62;100.00
60015;BME280;45867;52.480;6.056;2023-07-30T03:53:58;99048.97;;;13.79;100.00
60015;BME280;45867;52.480;6.056;2023-07-30T03:56:24;99042.97;;;13.70;100.00
60015;BME280;45867;52.480;6.056;2023-07-30T03:59:05;99022.47;;;13.70;100.00
60015;BME280;45867;52.480;6.056;2023-07-30T04:01:31;99021.13;;;13.76;100.00
60015;BME280;45867;52.480;6.056;2023-07-30T04:03:58;99000.16;;;13.63;100.00
60015;BME280;45867;52.480;6.056;2023-07-30T04:06:24;99010.81;;;13.87;100.00
60015;BME280;45867;52.480;6.056;2023-07-30T04:09:05;98998.28;;;13.75;100.00
60015;BME280;45867;52.480;6.056;2023-07-30T04:11:31;98997.53;;;13.75;100.00
60015;BME280;45867;52.480;6.056;2023-07-30T04:14:00;98992.63;;;13.77;100.00
60015;BME280;45867;52.480;6.056;2023-07-30T04:16:28;98974.88;;;13.69;100.00
60015;BME280;45867;52.480;6.056;2023-07-30T04:18:55;98967.91;;;13.64;100.00
60015;BME280;45867;52.480;6.056;2023-07-30T04:21:26;98975.97;;;13.80;100.00
60015;BME280;45867;52.480;6.056;2023-07-30T04:23:52;98372.59;;;13.68;100.00
60015;BME280;45867;52.480;6.056;2023-07-30T04:26:27;98328.69;;;13.78;100.00
60015;BME280;45867;52.480;6.056;2023-07-30T04:28:57;98309.72;;;13.80;100.00
60015;BME280;45867;52.480;6.056;2023-07-30T04:31:26;98322.13;;;13.91;100.00
60015;BME280;45867;52.480;6.056;2023-07-30T04:33:56;98325.00;;;14.02;100.00
60015;BME280;45867;52.480;6.056;2023-07-30T04:36:23;98297.09;;;13.96;100.00
60015;BME280;45867;52.480;6.056;2023-07-30T04:38:52;98289.75;;;14.09;100.00
60015;BME280;45867;52.480;6.056;2023-07-30T04:41:47;98263.75;;;14.02;100.00
60015;BME280;45867;52.480;6.056;2023-07-30T04:44:14;98275.03;;;14.15;100.00
60015;BME280;45867;52.480;6.056;2023-07-30T04:46:40;98259.19;;;14.22;100.00
60015;BME280;45867;52.480;6.056;2023-07-30T04:49:07;98270.66;;;14.26;100.00
60015;BME280;45867;52.480;6.056;2023-07-30T04:51:36;98276.16;;;14.33;100.00
60015;BME280;45867;52.480;6.056;2023-07-30T04:54:03;98259.88;;;14.38;100.00
60015;BME280;45867;52.480;6.056;2023-07-30T04:56:30;98264.13;;;14.43;100.00
60015;BME280;45867;52.480;6.056;2023-07-30T04:59:11;98269.53;;;14.47;100.00
60015;BME280;45867;52.480;6.056;2023-07-30T05:01:40;98272.69;;;14.52;100.00
60015;BME280;45867;52.480;6.056;2023-07-30T05:04:07;98264.13;;;14.43;100.00
60015;BME280;45867;52.480;6.056;2023-07-30T05:06:34;98267.47;;;14.59;100.00
60015;BME280;45867;52.480;6.056;2023-07-30T05:09:02;98273.22;;;14.61;100.00
60015;BME280;45867;52.480;6.056;2023-07-30T05:11:29;98281.69;;;14.67;100.00
60015;BME280;45867;52.480;6.056;2023-07-30T05:13:55;98268.28;;;14.60;100.00
60015;BME280;45867;52.480;6.056;2023-07-30T05:16:22;98256.91;;;14.63;100.00
60015;BME280;45867;52.480;6.056;2023-07-30T05:18:51;98282.97;;;14.73;100.00
60015;BME280;45867;52.480;6.056;2023-07-30T05:21:26;98299.19;;;14.87;100.00
60015;BME280;45867;52.480;6.056;2023-07-30T05:23:55;98304.22;;;14.93;100.00
60015;BME280;45867;52.480;6.056;2023-07-30T05:26:21;98315.72;;;14.97;100.00
60015;BME280;45867;52.480;6.056;2023-07-30T05:28:50;98306.06;;;14.88;100.00
60015;BME280;45867;52.480;6.056;2023-07-30T05:31:20;98303.09;;;14.94;100.00
60015;BME280;45867;52.480;6.056;2023-07-30T05:33:46;98328.09;;;15.08;100.00
60015;BME280;45867;52.480;6.056;2023-07-30T05:36:13;98300.91;;;14.99;100.00
60015;BME280;45867;52.480;6.056;2023-07-30T05:38:39;98340.00;;;15.15;100.00
60015;BME280;45867;52.480;6.056;2023-07-30T05:41:08;98308.31;;;15.09;100.00
60015;BME280;45867;52.480;6.056;2023-07-30T05:43:35;98338.34;;;15.29;100.00
60015;BME280;45867;52.480;6.056;2023-07-30T05:46:03;98341.91;;;15.14;100.00
60015;BME280;45867;52.480;6.056;2023-07-30T05:48:32;98377.28;;;15.34;100.00
60015;BME280;45867;52.480;6.056;2023-07-30T05:50:58;98373.84;;;15.34;100.00
60015;BME280;45867;52.480;6.056;2023-07-30T05:53:25;98398.84;;;15.48;100.00
60015;BME280;45867;52.480;6.056;2023-07-30T05:55:54;98403.38;;;15.44;100.00
60015;BME280;45867;52.480;6.056;2023-07-30T05:58:38;98400.28;;;15.42;100.00
60015;BME280;45867;52.480;6.056;2023-07-30T06:01:05;98427.31;;;15.64;100.00
60015;BME280;45867;52.480;6.056;2023-07-30T06:03:32;98436.25;;;15.71;100.00
60015;BME280;45867;52.480;6.056;2023-07-30T06:06:01;98460.03;;;15.80;100.00
60015;BME280;45867;52.480;6.056;2023-07-30T06:08:33;98461.25;;;15.86;100.00
60015;BME280;45867;52.480;6.056;2023-07-30T06:11:03;98475.44;;;16.17;100.00
60015;BME280;45867;52.480;6.056;2023-07-30T06:13:29;98495.34;;;16.23;100.00
60015;BME280;45867;52.480;6.056;2023-07-30T06:15:56;98507.50;;;16.43;100.00
60015;BME280;45867;52.480;6.056;2023-07-30T06:18:30;98553.03;;;16.24;100.00
60015;BME280;45867;52.480;6.056;2023-07-30T06:20:59;98584.38;;;16.80;100.00
60015;BME280;45867;52.480;6.056;2023-07-30T06:23:25;98656.75;;;17.18;100.00
60015;BME280;45867;52.480;6.056;2023-07-30T06:25:52;98760.81;;;17.23;100.00
60015;BME280;45867;52.480;6.056;2023-07-30T06:28:20;98841.78;;;17.43;100.00
60015;BME280;45867;52.480;6.056;2023-07-30T06:30:54;98918.97;;;17.60;100.00
60015;BME280;45867;52.480;6.056;2023-07-30T06:33:38;98986.75;;;17.64;100.00
60015;BME280;45867;52.480;6.056;2023-07-30T06:36:08;99047.59;;;17.64;100.00
60015;BME280;45867;52.480;6.056;2023-07-30T06:38:34;99090.97;;;17.73;100.00
60015;BME280;45867;52.480;6.056;2023-07-30T06:41:04;99146.69;;;17.64;100.00
60015;BME280;45867;52.480;6.056;2023-07-30T06:43:38;99171.44;;;17.77;100.00
60015;BME280;45867;52.480;6.056;2023-07-30T06:46:05;99179.75;;;17.91;100.00
60015;BME280;45867;52.480;6.056;2023-07-30T06:48:35;99214.84;;;17.66;100.00
60015;BME280;45867;52.480;6.056;2023-07-30T06:51:05;99230.28;;;17.73;100.00
60015;BME280;45867;52.480;6.056;2023-07-30T06:53:34;99241.19;;;17.80;100.00
60015;BME280;45867;52.480;6.056;2023-07-30T06:56:01;99268.38;;;17.63;100.00
60015;BME280;45867;52.480;6.056;2023-07-30T06:58:27;99268.69;;;17.61;100.00
60015;BME280;45867;52.480;6.056;2023-07-30T07:01:09;99274.69;;;17.55;100.00
60015;BME280;45867;52.480;6.056;2023-07-30T07:03:35;99322.72;;;17.63;100.00
60015;BME280;45867;52.480;6.056;2023-07-30T07:06:11;99320.72;;;17.60;100.00
60015;BME280;45867;52.480;6.056;2023-07-30T07:08:41;99315.88;;;17.66;100.00
60015;BME280;45867;52.480;6.056;2023-07-30T07:11:07;99327.44;;;17.70;100.00
60015;BME280;45867;52.480;6.056;2023-07-30T07:13:34;99319.28;;;17.47;100.00
60015;BME280;45867;52.480;6.056;2023-07-30T07:16:00;99335.16;;;17.56;100.00
60015;BME280;45867;52.480;6.056;2023-07-30T07:18:30;99322.56;;;17.40;100.00
60015;BME280;45867;52.480;6.056;2023-07-30T07:20:56;99328.00;;;17.60;100.00
60015;BME280;45867;52.480;6.056;2023-07-30T07:23:26;99312.59;;;17.57;100.00
60015;BME280;45867;52.480;6.056;2023-07-30T07:25:52;99339.69;;;17.51;100.00
60015;BME280;45867;52.480;6.056;2023-07-30T07:28:26;99330.03;;;17.82;100.00
60015;BME280;45867;52.480;6.056;2023-07-30T07:30:54;99368.28;;;17.99;100.00
60015;BME280;45867;52.480;6.056;2023-07-30T07:33:25;99381.09;;;17.73;100.00
60015;BME280;45867;52.480;6.056;2023-07-30T07:39:09;99429.41;;;18.28;100.00
60015;BME280;45867;52.480;6.056;2023-07-30T07:41:38;99436.53;;;18.59;100.00
60015;BME280;45867;52.480;6.056;2023-07-30T07:44:16;99483.84;;;19.06;100.00
60015;BME280;45867;52.480;6.056;2023-07-30T07:46:44;99532.75;;;20.08;100.00
60015;BME280;45867;52.480;6.056;2023-07-30T07:49:12;99613.06;;;20.55;100.00
60015;BME280;45867;52.480;6.056;2023-07-30T07:51:38;99691.91;;;20.82;100.00
60015;BME280;45867;52.480;6.056;2023-07-30T07:54:05;99800.13;;;21.41;100.00
60015;BME280;45867;52.480;6.056;2023-07-30T07:56:55;99847.69;;;20.42;100.00
60015;BME280;45867;52.480;6.056;2023-07-30T07:59:22;99848.75;;;19.79;100.00
60015;BME280;45867;52.480;6.056;2023-07-30T08:01:58;99822.31;;;19.29;100.00
60015;BME280;45867;52.480;6.056;2023-07-30T08:08:05;99777.78;;;18.49;100.00
60015;BME280;45867;52.480;6.056;2023-07-30T08:10:38;99743.84;;;18.41;100.00
60015;BME280;45867;52.480;6.056;2023-07-30T08:13:08;99745.25;;;18.51;100.00
60015;BME280;45867;52.480;6.056;2023-07-30T08:15:34;99739.28;;;18.41;100.00
60015;BME280;45867;52.480;6.056;2023-07-30T08:18:01;99719.09;;;18.32;100.00
60015;BME280;45867;52.480;6.056;2023-07-30T08:20:28;99715.00;;;18.22;100.00
60015;BME280;45867;52.480;6.056;2023-07-30T08:22:54;99696.94;;;18.19;100.00
60015;BME280;45867;52.480;6.056;2023-07-30T08:25:25;99679.13;;;18.11;100.00
60015;BME280;45867;52.480;6.056;2023-07-30T08:27:56;99685.41;;;18.03;100.00
60015;BME280;45867;52.480;6.056;2023-07-30T08:30:26;99661.53;;;17.82;100.00
60015;BME280;45867;52.480;6.056;2023-07-30T08:32:56;99657.28;;;17.81;100.00
60015;BME280;45867;52.480;6.056;2023-07-30T08:35:25;99644.56;;;17.49;100.00
60015;BME280;45867;52.480;6.056;2023-07-30T08:38:04;99614.44;;;17.40;100.00
60015;BME280;45867;52.480;6.056;2023-07-30T08:40:31;99565.22;;;17.45;100.00
60015;BME280;45867;52.480;6.056;2023-07-30T08:43:01;99572.94;;;17.90;100.00
60015;BME280;45867;52.480;6.056;2023-07-30T08:45:29;99607.09;;;18.25;100.00
60015;BME280;45867;52.480;6.056;2023-07-30T08:47:56;99643.50;;;18.26;100.00
60015;BME280;45867;52.480;6.056;2023-07-30T08:50:25;99668.38;;;18.11;100.00
60015;BME280;45867;52.480;6.056;2023-07-30T08:52:54;99703.66;;;17.97;100.00
60015;BME280;45867;52.480;6.056;2023-07-30T08:55:22;99703.97;;;17.80;100.00
60015;BME280;45867;52.480;6.056;2023-07-30T08:57:54;99703.56;;;17.93;100.00
60015;BME280;45867;52.480;6.056;2023-07-30T09:00:26;99708.31;;;17.72;100.00
60015;BME280;45867;52.480;6.056;2023-07-30T09:02:59;99713.75;;;17.75;100.00
60015;BME280;45867;52.480;6.056;2023-07-30T09:05:29;99697.97;;;17.58;100.00
60015;BME280;45867;52.480;6.056;2023-07-30T09:07:56;99687.13;;;17.67;100.00
60015;BME280;45867;52.480;6.056;2023-07-30T09:10:26;99700.69;;;17.46;100.00
60015;BME280;45867;52.480;6.056;2023-07-30T09:12:57;99701.25;;;17.51;100.00
60015;BME280;45867;52.480;6.056;2023-07-30T09:15:35;99700.50;;;17.39;100.00
60015;BME280;45867;52.480;6.056;2023-07-30T09:18:05;99722.25;;;17.37;100.00
60015;BME280;45867;52.480;6.056;2023-07-30T09:20:39;99706.31;;;17.28;100.00
60015;BME280;45867;52.480;6.056;2023-07-30T09:23:07;99713.97;;;17.55;100.00
60015;BME280;45867;52.480;6.056;2023-07-30T09:25:37;99709.56;;;17.62;100.00
60015;BME280;45867;52.480;6.056;2023-07-30T09:28:10;99718.41;;;17.63;100.00
60015;BME280;45867;52.480;6.056;2023-07-30T09:30:48;99740.69;;;18.07;100.00
60015;BME280;45867;52.480;6.056;2023-07-30T09:33:18;99766.13;;;18.13;100.00
60015;BME280;45867;52.480;6.056;2023-07-30T09:35:57;99758.72;;;18.23;100.00
60015;BME280;45867;52.480;6.056;2023-07-30T09:38:30;99755.56;;;18.05;100.00
60015;BME280;45867;52.480;6.056;2023-07-30T09:41:01;99751.13;;;19.74;100.00
60015;BME280;45867;52.480;6.056;2023-07-30T09:43:34;99841.84;;;20.36;100.00
60015;BME280;45867;52.480;6.056;2023-07-30T09:46:07;99935.59;;;20.53;100.00
60015;BME280;45867;52.480;6.056;2023-07-30T09:48:54;99966.69;;;19.64;100.00
60015;BME280;45867;52.480;6.056;2023-07-30T09:51:21;99954.66;;;18.98;100.00
60015;BME280;45867;52.480;6.056;2023-07-30T09:53:49;99943.16;;;18.41;100.00
60015;BME280;45867;52.480;6.056;2023-07-30T09:56:26;99847.22;;;17.82;100.00
60015;BME280;45867;52.480;6.056;2023-07-30T09:58:58;99797.16;;;17.86;100.00
60015;BME280;45867;52.480;6.056;2023-07-30T10:01:32;99744.06;;;17.64;100.00
60015;BME280;45867;52.480;6.056;2023-07-30T10:03:59;99708.94;;;17.53;100.00
60015;BME280;45867;52.480;6.056;2023-07-30T10:06:31;99692.22;;;17.44;100.00
60015;BME280;45867;52.480;6.056;2023-07-30T10:08:59;99654.19;;;17.38;100.00
60015;BME280;45867;52.480;6.056;2023-07-30T10:11:27;99661.81;;;17.24;100.00
60015;BME280;45867;52.480;6.056;2023-07-30T10:13:54;99678.78;;;17.16;100.00
60015;BME280;45867;52.480;6.056;2023-07-30T10:16:34;99659.50;;;17.50;100.00
60015;BME280;45867;52.480;6.056;2023-07-30T10:19:08;99684.06;;;17.81;100.00
60015;BME280;45867;52.480;6.056;2023-07-30T10:21:35;99674.81;;;18.06;100.00
60015;BME280;45867;52.480;6.056;2023-07-30T10:24:07;99715.72;;;18.19;100.00
60015;BME280;45867;52.480;6.056;2023-07-30T10:26:34;99759.63;;;19.06;100.00
60015;BME280;45867;52.480;6.056;2023-07-30T10:29:14;99811.66;;;19.33;100.00
60015;BME280;45867;52.480;6.056;2023-07-30T10:32:00;99849.97;;;19.14;100.00
60015;BME280;45867;52.480;6.056;2023-07-30T10:34:43;99857.06;;;18.91;100.00
60015;BME280;45867;52.480;6.056;2023-07-30T10:37:25;99880.81;;;19.04;100.00
60015;BME280;45867;52.480;6.056;2023-07-30T10:39:59;99921.34;;;20.14;100.00
60015;BME280;45867;52.480;6.056;2023-07-30T10:42:33;99987.50;;;21.35;100.00
60015;BME280;45867;52.480;6.056;2023-07-30T10:44:59;100121.13;;;21.36;100.00
60015;BME280;45867;52.480;6.056;2023-07-30T10:47:27;100161.56;;;21.56;100.00
60015;BME280;45867;52.480;6.056;2023-07-30T10:50:02;100218.28;;;22.02;100.00
60015;BME280;45867;52.480;6.056;2023-07-30T10:52:29;100287.25;;;22.42;100.00
60015;BME280;45867;52.480;6.056;2023-07-30T10:55:00;100928.53;;;23.59;100.00
60015;BME280;45867;52.480;6.056;2023-07-30T10:57:36;101008.72;;;23.35;100.00
60015;BME280;45867;52.480;6.056;2023-07-30T11:00:09;101006.69;;;23.00;100.00
60015;BME280;45867;52.480;6.056;2023-07-30T11:02:37;100994.78;;;23.33;100.00
60015;BME280;45867;52.480;6.056;2023-07-30T11:08:12;101009.69;;;23.11;100.00
60015;BME280;45867;52.480;6.056;2023-07-30T11:10:54;101008.19;;;22.57;100.00
60015;BME280;45867;52.480;6.056;2023-07-30T11:13:25;100992.09;;;23.49;100.00
60015;BME280;45867;52.480;6.056;2023-07-30T11:15:54;100989.03;;;23.82;100.00
60015;BME280;45867;52.480;6.056;2023-07-30T11:18:33;100987.94;;;25.00;100.00
60015;BME280;45867;52.480;6.056;2023-07-30T11:23:50;100994.78;;;24.16;100.00
60015;BME280;45867;52.480;6.056;2023-07-30T11:26:20;100998.13;;;24.64;100.00
60015;BME280;45867;52.480;6.056;2023-07-30T11:28:56;100994.94;;;24.81;100.00
60015;BME280;45867;52.480;6.056;2023-07-30T11:31:26;100994.84;;;25.17;100.00
60015;BME280;45867;52.480;6.056;2023-07-30T11:33:56;100996.63;;;23.77;100.00
60015;BME280;45867;52.480;6.056;2023-07-30T11:36:26;101011.78;;;23.34;100.00
60015;BME280;45867;52.480;6.056;2023-07-30T11:38:55;101007.88;;;23.47;100.00
60015;BME280;45867;52.480;6.056;2023-07-30T11:41:35;101000.88;;;22.58;100.00
60015;BME280;45867;52.480;6.056;2023-07-30T11:44:05;101019.00;;;22.45;100.00
60015;BME280;45867;52.480;6.056;2023-07-30T11:46:37;101006.13;;;22.67;100.00
60015;BME280;45867;52.480;6.056;2023-07-30T11:49:27;101024.28;;;23.86;100.00
60015;BME280;45867;52.480;6.056;2023-07-30T11:52:10;101032.81;;;23.40;100.00
60015;BME280;45867;52.480;6.056;2023-07-30T11:54:37;101014.75;;;24.27;100.00
60015;BME280;45867;52.480;6.056;2023-07-30T11:57:07;101025.03;;;24.37;100.00
60015;BME280;45867;52.480;6.056;2023-07-30T11:59:33;101020.97;;;23.77;100.00
60015;BME280;45867;52.480;6.056;2023-07-30T12:02:03;101050.03;;;23.80;100.00
60015;BME280;45867;52.480;6.056;2023-07-30T12:04:45;101035.94;;;23.42;100.00
60015;BME280;45867;52.480;6.056;2023-07-30T12:07:32;101044.16;;;23.62;100.00
60015;BME280;45867;52.480;6.056;2023-07-30T12:10:22;101041.38;;;23.42;100.00
60015;BME280;45867;52.480;6.056;2023-07-30T12:12:54;101029.00;;;23.13;100.00
60015;BME280;45867;52.480;6.056;2023-07-30T12:15:21;101062.31;;;23.01;100.00
60015;BME280;45867;52.480;6.056;2023-07-30T12:18:00;101054.13;;;22.98;100.00
60015;BME280;45867;52.480;6.056;2023-07-30T12:20:38;101023.06;;;23.08;100.00
60015;BME280;45867;52.480;6.056;2023-07-30T12:23:08;101036.34;;;23.73;100.00
60015;BME280;45867;52.480;6.056;2023-07-30T12:25:40;101051.03;;;23.59;100.00
60015;BME280;45867;52.480;6.056;2023-07-30T12:28:07;101039.66;;;23.82;100.00
60015;BME280;45867;52.480;6.056;2023-07-30T12:30:36;101069.56;;;23.89;100.00
60015;BME280;45867;52.480;6.056;2023-07-30T12:33:04;101055.63;;;23.27;100.00
60015;BME280;45867;52.480;6.056;2023-07-30T12:35:37;101054.81;;;23.11;100.00
60015;BME280;45867;52.480;6.056;2023-07-30T12:38:03;101064.03;;;23.38;100.00
60015;BME280;45867;52.480;6.056;2023-07-30T12:40:49;101034.63;;;23.20;100.00
60015;BME280;45867;52.480;6.056;2023-07-30T12:43:20;101038.72;;;22.46;100.00
60015;BME280;45867;52.480;6.056;2023-07-30T12:45:47;101057.84;;;21.21;100.00
60015;BME280;45867;52.480;6.056;2023-07-30T12:48:14;101055.44;;;20.87;100.00
60015;BME280;45867;52.480;6.056;2023-07-30T12:50:43;101042.88;;;20.49;100.00
60015;BME280;45867;52.480;6.056;2023-07-30T12:53:22;101048.31;;;21.69;100.00
60015;BME280;45867;52.480;6.056;2023-07-30T12:56:00;101021.44;;;23.03;100.00
60015;BME280;45867;52.480;6.056;2023-07-30T12:58:30;101023.03;;;22.92;100.00
60015;BME280;45867;52.480;6.056;2023-07-30T13:00:56;101033.69;;;23.44;100.00
60015;BME280;45867;52.480;6.056;2023-07-30T13:03:26;101037.81;;;22.82;100.00
60015;BME280;45867;52.480;6.056;2023-07-30T13:05:52;101064.91;;;23.26;100.00
60015;BME280;45867;52.480;6.056;2023-07-30T13:08:38;101039.97;;;22.11;100.00
60015;BME280;45867;52.480;6.056;2023-07-30T13:11:32;101061.28;;;21.43;100.00
60015;BME280;45867;52.480;6.056;2023-07-30T13:14:02;101033.13;;;21.19;100.00
60015;BME280;45867;52.480;6.056;2023-07-30T13:16:52;101067.72;;;21.17;100.00
60015;BME280;45867;52.480;6.056;2023-07-30T13:19:21;101037.00;;;22.53;100.00